Time;durP1;ratioP1;P1;durP2;ratioP2;P2;SDS_P1;SDS_P2;PMS_P1;PMS_P2;Temp;Humidity;BMP_temperature;BMP_pressure;BME280_temperature;BME280_humidity;BME280_pressure;Samples;Min_cycle;Max_cycle;Signal;HPM_P1;HPM_P2
2022/03/31 00:00:57;;;;;;;24.07;2.70;;;;;;;14.83;100.00;101021.09;5056880;28;20433;-91
2022/03/31 00:03:26;;;;;;;17.03;3.30;;;;;;;14.89;100.00;101022.97;5055605;28;20438;-89
2022/03/31 00:06:01;;;;;;;20.07;3.30;;;;;;;14.80;100.00;101008.63;5073755;28;20480;-90
2022/03/31 00:08:28;;;;;;;24.23;3.40;;;;;;;14.87;100.00;101016.84;5057129;28;20441;-89
2022/03/31 00:10:56;;;;;;;17.00;3.50;;;;;;;14.82;100.00;101008.38;5073447;28;21019;-89
2022/03/31 00:13:27;;;;;;;33.43;6.90;;;;;;;14.85;100.00;101013.47;5089692;28;20521;-90
2022/03/31 00:15:56;;;;;;;13.73;3.27;;;;;;;14.81;100.00;101004.81;5056770;28;20449;-91
2022/03/31 00:18:26;;;;;;;16.73;3.27;;;;;;;14.76;100.00;101001.84;5073695;28;20974;-90
2022/03/31 00:24:19;;;;;;;15.90;2.70;;;;;;;14.64;100.00;100997.19;5074093;28;20445;-90
2022/03/31 00:26:48;;;;;;;14.30;2.27;;;;;;;14.61;100.00;100994.91;5070783;28;20473;-91
2022/03/31 00:29:16;;;;;;;14.87;3.20;;;;;;;14.52;100.00;100981.38;5073450;28;20935;-90
2022/03/31 00:31:45;;;;;;;20.53;2.70;;;;;;;14.48;100.00;100993.84;5053810;28;20442;-89
2022/03/31 00:34:12;;;;;;;14.20;3.90;;;;;;;14.45;100.00;100987.91;5070833;28;20445;-90
2022/03/31 00:36:44;;;;;;;14.03;2.30;;;;;;;14.42;100.00;100982.88;5072031;28;20607;-90
2022/03/31 00:39:32;;;;;;;24.60;3.20;;;;;;;14.34;100.00;100986.66;5056784;28;20445;-90
2022/03/31 00:42:00;;;;;;;18.43;2.93;;;;;;;14.23;100.00;100976.31;5072975;28;20503;-90
2022/03/31 00:44:29;;;;;;;10.73;2.40;;;;;;;14.23;100.00;100965.31;5056052;28;20528;-90
2022/03/31 00:46:58;;;;;;;16.83;2.60;;;;;;;14.18;100.00;100970.59;5072101;28;20481;-90
2022/03/31 00:49:26;;;;;;;15.60;2.20;;;;;;;14.16;100.00;100976.28;5063758;28;20449;-90
2022/03/31 00:51:54;;;;;;;39.43;4.57;;;;;;;14.22;100.00;100988.34;5075662;28;20479;-90
2022/03/31 00:54:52;;;;;;;19.30;2.60;;;;;;;14.14;100.00;100969.31;5073072;28;20847;-89
2022/03/31 00:57:26;;;;;;;19.90;2.80;;;;;;;14.11;100.00;100961.47;5056288;28;20445;-90
2022/03/31 00:59:54;;;;;;;11.57;2.07;;;;;;;14.09;100.00;100961.69;5089225;28;20438;-90
2022/03/31 01:02:22;;;;;;;16.60;2.80;;;;;;;14.14;100.00;100972.06;5056585;28;20429;-90
2022/03/31 01:04:51;;;;;;;13.77;2.63;;;;;;;14.19;100.00;100969.53;5077735;28;20476;-90
2022/03/31 01:07:26;;;;;;;14.63;2.80;;;;;;;14.07;100.00;100949.22;5055931;28;20477;-90
2022/03/31 01:10:18;;;;;;;17.60;2.60;;;;;;;14.20;100.00;100967.63;5072050;28;20440;-90
2022/03/31 01:12:46;;;;;;;26.33;2.80;;;;;;;14.20;100.00;100976.72;5078596;28;21052;-90
2022/03/31 01:15:14;;;;;;;17.60;2.93;;;;;;;14.24;100.00;100969.72;5059508;28;20531;-89
2022/03/31 01:17:45;;;;;;;20.97;3.20;;;;;;;14.23;100.00;100965.31;5092780;28;20433;-90
2022/03/31 01:20:21;;;;;;;19.87;3.17;;;;;;;14.19;100.00;100947.53;5055816;28;20442;-90
2022/03/31 01:22:50;;;;;;;16.30;2.73;;;;;;;14.17;100.00;100935.91;5090832;28;20929;-90
2022/03/31 01:25:18;;;;;;;17.60;3.10;;;;;;;14.28;100.00;100949.00;5080478;28;20435;-90
2022/03/31 01:27:47;;;;;;;15.87;3.63;;;;;;;14.35;100.00;100966.34;5096699;28;20436;-90
2022/03/31 01:30:22;;;;;;;14.53;2.03;;;;;;;14.25;100.00;100948.56;5093515;28;20443;-90
2022/03/31 01:32:50;;;;;;;27.13;4.17;;;;;;;14.32;100.00;100955.75;5092317;28;20471;-90
2022/03/31 01:35:18;;;;;;;20.60;3.83;;;;;;;14.34;100.00;100955.56;5076155;28;20424;-89
2022/03/31 01:37:47;;;;;;;22.00;3.93;;;;;;;14.36;100.00;100951.53;5091136;28;20436;-90
2022/03/31 01:40:15;;;;;;;17.70;4.40;;;;;;;14.42;100.00;100944.38;5072079;28;20791;-90
2022/03/31 01:42:45;;;;;;;30.13;4.10;;;;;;;14.50;100.00;100939.47;5045537;28;20445;-90
2022/03/31 01:45:15;;;;;;;17.00;2.90;;;;;;;14.56;100.00;100937.78;5059873;28;20451;-90
2022/03/31 01:47:52;;;;;;;29.30;4.73;;;;;;;14.51;100.00;100919.16;5076822;28;20510;-90
2022/03/31 01:50:21;;;;;;;22.80;3.30;;;;;;;14.65;100.00;100935.63;5098650;28;20439;-91
2022/03/31 01:52:49;;;;;;;27.97;4.83;;;;;;;14.67;100.00;100928.84;5068817;28;20433;-90
2022/03/31 01:55:18;;;;;;;28.60;4.23;;;;;;;14.74;100.00;100928.84;5059885;28;20448;-91
2022/03/31 01:57:46;;;;;;;29.37;4.53;;;;;;;14.76;100.00;100913.81;5059167;28;20528;-90
2022/03/31 02:00:14;;;;;;;29.30;3.60;;;;;;;14.83;100.00;100927.53;5091921;28;20453;-90
2022/03/31 02:02:52;;;;;;;24.50;3.40;;;;;;;14.80;100.00;100905.97;5075346;28;20444;-90
2022/03/31 02:05:46;;;;;;;28.07;4.20;;;;;;;14.89;100.00;100921.16;5058489;28;20555;-90
2022/03/31 02:08:14;;;;;;;27.83;4.60;;;;;;;14.86;100.00;100907.81;5088003;28;20441;-90
2022/03/31 02:10:43;;;;;;;11.57;2.17;;;;;;;14.87;100.00;100920.53;5058826;28;20441;-90
2022/03/31 02:13:15;;;;;;;9.60;2.40;;;;;;;14.89;100.00;100912.06;5058429;28;20445;-91
2022/03/31 02:15:43;;;;;;;12.57;2.23;;;;;;;14.85;100.00;100908.88;5091073;28;20429;-90
2022/03/31 02:18:12;;;;;;;7.20;1.70;;;;;;;14.79;100.00;100915.28;5075182;28;20500;-90
2022/03/31 02:20:41;;;;;;;8.60;1.30;;;;;;;14.76;100.00;100908.31;5071862;28;20433;-90
2022/03/31 02:23:09;;;;;;;9.40;1.40;;;;;;;14.74;100.00;100899.41;5074802;28;20440;-90
2022/03/31 02:25:38;;;;;;;7.93;1.43;;;;;;;14.69;100.00;100887.38;5058496;28;20433;-90
2022/03/31 02:28:08;;;;;;;6.43;1.20;;;;;;;14.72;100.00;100900.69;5074773;28;20428;-89
2022/03/31 02:30:36;;;;;;;8.63;1.07;;;;;;;14.71;100.00;100899.84;5091082;28;20441;-91
2022/03/31 02:33:06;;;;;;;9.30;1.30;;;;;;;14.71;100.00;100894.34;5074298;28;20437;-90
2022/03/31 02:35:34;;;;;;;3.20;0.60;;;;;;;14.68;100.00;100885.69;5088398;28;20445;-90
2022/03/31 02:38:03;;;;;;;8.00;1.40;;;;;;;14.66;100.00;100896.06;5074412;28;20525;-90
2022/03/31 02:40:32;;;;;;;6.53;1.13;;;;;;;14.64;100.00;100898.16;5074507;28;20935;-90
2022/03/31 02:43:00;;;;;;;10.90;1.00;;;;;;;14.62;100.00;100909.41;5091724;28;20833;-90
2022/03/31 02:45:29;;;;;;;4.53;1.17;;;;;;;14.56;100.00;100901.19;5077155;28;20494;-89
2022/03/31 02:47:58;;;;;;;7.10;1.17;;;;;;;14.61;100.00;100904.13;5094395;28;20487;-90
2022/03/31 02:50:26;;;;;;;2.70;1.07;;;;;;;14.58;100.00;100899.91;5094013;28;20943;-90
2022/03/31 02:55:40;;;;;;;4.90;0.73;;;;;;;14.61;100.00;100887.63;5075251;28;20446;-91
2022/03/31 02:58:08;;;;;;;10.00;1.47;;;;;;;14.57;100.00;100870.72;5042006;28;20445;-91
2022/03/31 03:00:37;;;;;;;2.53;0.77;;;;;;;14.62;100.00;100867.31;5061527;28;20931;-91
2022/03/31 03:03:06;;;;;;;3.00;0.90;;;;;;;14.64;100.00;100862.41;5065160;28;20442;-90
2022/03/31 03:05:34;;;;;;;5.00;0.80;;;;;;;14.67;100.00;100861.97;5057996;28;20477;-91
2022/03/31 03:08:02;;;;;;;6.83;0.90;;;;;;;14.65;100.00;100844.84;5067209;28;20485;-90
2022/03/31 03:10:31;;;;;;;7.00;1.10;;;;;;;14.66;100.00;100852.03;5075199;28;20442;-90
2022/03/31 03:12:59;;;;;;;5.40;0.77;;;;;;;14.66;100.00;100847.38;5074733;28;20449;-90
2022/03/31 03:15:27;;;;;;;10.83;1.23;;;;;;;14.67;100.00;100854.56;5067021;28;20449;-90
2022/03/31 03:17:55;;;;;;;3.93;0.87;;;;;;;14.58;100.00;100841.28;5092922;28;20540;-90
2022/03/31 03:20:26;;;;;;;4.80;1.03;;;;;;;14.61;100.00;100843.63;5077531;28;20440;-90
2022/03/31 03:22:54;;;;;;;5.23;1.00;;;;;;;14.62;100.00;100856.31;5094233;28;20436;-90
2022/03/31 03:25:23;;;;;;;5.53;0.90;;;;;;;14.60;100.00;100852.94;5077095;28;20433;-90
2022/03/31 03:27:52;;;;;;;6.00;1.00;;;;;;;14.59;100.00;100865.84;5077755;28;20479;-91
2022/03/31 03:30:20;;;;;;;4.80;0.70;;;;;;;14.50;100.00;100845.13;5077808;28;20441;-90
2022/03/31 03:32:48;;;;;;;5.67;1.33;;;;;;;14.50;100.00;100843.22;5089276;28;20521;-90
2022/03/31 03:35:19;;;;;;;5.10;0.90;;;;;;;14.56;100.00;100841.50;5074086;28;20441;-90
2022/03/31 03:37:48;;;;;;;6.20;1.40;;;;;;;14.55;100.00;100850.81;5083196;28;20876;-90
2022/03/31 03:40:18;;;;;;;8.10;1.33;;;;;;;14.51;100.00;100844.91;5057675;28;20440;-90
2022/03/31 03:42:49;;;;;;;8.10;1.17;;;;;;;14.60;100.00;100852.94;5079248;28;20550;-90
2022/03/31 03:45:18;;;;;;;3.47;1.00;;;;;;;14.54;100.00;100837.28;5077751;28;20472;-90
2022/03/31 03:48:01;;;;;;;6.27;1.00;;;;;;;14.45;100.00;100823.75;5072418;28;20488;-90
2022/03/31 03:50:34;;;;;;;5.57;1.13;;;;;;;14.51;100.00;100836.66;5058021;28;20450;-90
2022/03/31 03:53:07;;;;;;;7.40;2.20;;;;;;;14.51;100.00;100831.16;5077155;28;20452;-90
2022/03/31 03:55:47;;;;;;;3.60;0.77;;;;;;;14.48;100.00;100817.84;5077328;28;20779;-90
2022/03/31 04:05:58;;;;;;;13.70;1.27;;;;;;;14.51;100.00;100822.06;5053759;28;20468;-90
2022/03/31 04:08:55;;;;;;;10.17;1.03;;;;;;;14.61;100.00;100849.97;5073156;28;20445;-91
2022/03/31 04:11:30;;;;;;;12.07;1.70;;;;;;;14.58;100.00;100841.28;5090309;28;20450;-90
2022/03/31 04:13:58;;;;;;;8.73;1.60;;;;;;;14.57;100.00;100834.09;5074614;28;20466;-91
2022/03/31 04:16:29;;;;;;;4.67;0.70;;;;;;;14.55;100.00;100850.81;5094101;28;20834;-91
2022/03/31 04:19:00;;;;;;;5.53;0.87;;;;;;;14.49;100.00;100833.28;5060472;28;20502;-91
2022/03/31 04:21:29;;;;;;;6.90;0.97;;;;;;;14.47;100.00;100837.28;5060850;28;20437;-90
2022/03/31 04:24:00;;;;;;;8.70;1.20;;;;;;;14.51;100.00;100847.66;5072981;28;20495;-91
2022/03/31 04:26:28;;;;;;;2.90;0.63;;;;;;;14.48;100.00;100861.84;5066469;28;20470;-91
2022/03/31 04:28:55;;;;;;;1.60;0.60;;;;;;;14.41;100.00;100869.28;5078621;28;20528;-90
2022/03/31 04:31:27;;;;;;;1.93;0.53;;;;;;;14.41;100.00;100858.28;5067743;28;20437;-90
2022/03/31 04:33:55;;;;;;;4.03;0.70;;;;;;;14.33;100.00;100841.97;5086787;28;20449;-90
2022/03/31 04:36:23;;;;;;;8.30;1.20;;;;;;;14.41;100.00;100855.53;5055865;28;20976;-89
2022/03/31 04:38:54;;;;;;;6.73;1.30;;;;;;;14.42;100.00;100865.47;5089182;28;20457;-90
2022/03/31 04:41:56;;;;;;;4.00;1.10;;;;;;;14.45;100.00;100873.25;5073439;28;20528;-90
2022/03/31 04:44:46;;;;;;;4.03;0.70;;;;;;;14.31;100.00;100838.59;5072764;28;20441;-90
2022/03/31 04:47:21;;;;;;;4.57;1.03;;;;;;;14.35;100.00;100844.50;5055553;28;20473;-90
2022/03/31 04:49:50;;;;;;;7.27;1.20;;;;;;;14.43;100.00;100852.56;5088887;28;20813;-90
2022/03/31 04:52:18;;;;;;;10.53;1.43;;;;;;;14.45;100.00;100856.75;5072544;28;20438;-90
2022/03/31 04:54:46;;;;;;;5.63;0.80;;;;;;;14.44;100.00;100844.06;5056056;28;20433;-90
2022/03/31 04:57:15;;;;;;;7.20;1.20;;;;;;;14.48;100.00;100845.34;5056509;28;20452;-89
2022/03/31 04:59:42;;;;;;;9.83;1.30;;;;;;;14.50;100.00;100850.63;5057896;28;20939;-90
2022/03/31 05:02:11;;;;;;;5.67;1.20;;;;;;;14.45;100.00;100848.50;5056405;28;20466;-89
2022/03/31 05:16:37;;;;;;;4.73;1.27;;;;;;;14.39;100.00;100871.38;5073605;28;20541;-90
2022/03/31 05:19:06;;;;;;;8.80;1.47;;;;;;;14.39;100.00;100868.63;5069399;28;20441;-90
2022/03/31 05:21:53;;;;;;;9.30;1.00;;;;;;;14.48;100.00;100889.34;5059624;28;20433;-90
2022/03/31 05:28:26;;;;;;;9.43;2.03;;;;;;;14.35;100.00;100877.50;5037147;28;20486;-90
2022/03/31 05:31:24;;;;;;;7.60;1.30;;;;;;;14.41;100.00;100894.03;5024392;28;20923;-90
2022/03/31 05:37:43;;;;;;;5.80;0.93;;;;;;;14.26;100.00;100889.78;5045540;28;20804;-90
2022/03/31 05:40:13;;;;;;;7.03;1.43;;;;;;;14.23;100.00;100885.56;5056889;28;20499;-89
2022/03/31 05:42:55;;;;;;;5.40;0.80;;;;;;;14.35;100.00;100905.84;5075323;28;20433;-90
2022/03/31 05:46:05;;;;;;;4.10;1.10;;;;;;;14.37;100.00;100914.72;5060940;28;20498;-90
2022/03/31 05:52:24;;;;;;;4.77;1.00;;;;;;;14.33;100.00;100907.13;5075263;28;20429;-91
2022/03/31 05:55:01;;;;;;;3.23;1.03;;;;;;;14.20;100.00;100908.00;5087858;28;20491;-90
2022/03/31 05:57:32;;;;;;;6.03;1.13;;;;;;;14.22;100.00;100899.53;5056581;28;20495;-90
2022/03/31 06:00:15;;;;;;;4.30;1.20;;;;;;;14.20;100.00;100891.50;5092268;28;20784;-89
2022/03/31 06:03:21;;;;;;;7.00;1.53;;;;;;;14.31;100.00;100898.22;5070820;28;20775;-90
2022/03/31 06:05:59;;;;;;;6.90;1.17;;;;;;;14.26;100.00;100895.28;5072556;28;20445;-90
2022/03/31 06:08:42;;;;;;;4.80;1.10;;;;;;;14.28;100.00;100898.66;5074924;28;20528;-90
2022/03/31 06:11:13;;;;;;;2.60;0.90;;;;;;;14.25;100.00;100904.56;5075915;28;20433;-90
2022/03/31 06:13:41;;;;;;;4.87;1.10;;;;;;;14.32;100.00;100917.28;5074106;28;20926;-90
2022/03/31 06:16:30;;;;;;;6.30;1.10;;;;;;;14.34;100.00;100920.66;5093056;28;20437;-93
2022/03/31 06:19:11;;;;;;;3.00;1.00;;;;;;;14.27;100.00;100914.31;5077493;28;20494;-90
2022/03/31 06:21:40;;;;;;;6.77;1.40;;;;;;;14.30;100.00;100913.03;5079052;28;20819;-90
2022/03/31 06:24:07;;;;;;;8.07;1.43;;;;;;;14.30;100.00;100913.88;5074696;28;20429;-90
2022/03/31 06:26:35;;;;;;;9.20;1.10;;;;;;;14.30;100.00;100921.28;5072684;28;20443;-90
2022/03/31 06:29:05;;;;;;;7.10;0.93;;;;;;;14.24;100.00;100914.72;5062614;28;20798;-89
2022/03/31 06:31:33;;;;;;;5.30;0.90;;;;;;;14.22;100.00;100910.53;5078910;28;20440;-90
2022/03/31 06:34:09;;;;;;;3.30;1.10;;;;;;;14.27;100.00;100919.81;5063068;28;20852;-89
2022/03/31 06:36:38;;;;;;;5.73;1.10;;;;;;;14.31;100.00;100926.56;5062930;28;20805;-89
2022/03/31 06:39:06;;;;;;;9.30;1.83;;;;;;;14.30;100.00;100929.53;5088162;28;20540;-90
2022/03/31 06:41:33;;;;;;;10.17;1.60;;;;;;;14.30;100.00;100924.88;5078645;28;20499;-90
2022/03/31 06:44:01;;;;;;;8.60;1.33;;;;;;;14.28;100.00;100924.25;5078424;28;20433;-90
2022/03/31 06:46:29;;;;;;;19.30;2.27;;;;;;;14.30;100.00;100930.38;5062395;28;20490;-91
2022/03/31 06:48:57;;;;;;;16.77;2.23;;;;;;;14.33;100.00;100935.47;5062112;28;20488;-90
2022/03/31 06:51:25;;;;;;;7.60;1.60;;;;;;;14.29;100.00;100916.84;5078744;28;20436;-90
2022/03/31 07:00:48;;;;;;;13.23;2.10;;;;;;;14.42;100.00;100911.38;5022236;28;20459;-89
2022/03/31 07:03:18;;;;;;;13.77;2.83;;;;;;;14.48;100.00;100927.84;5001607;28;20455;-89
2022/03/31 07:05:47;;;;;;;17.60;2.83;;;;;;;14.61;100.00;100943.50;5001613;28;20447;-89
2022/03/31 07:08:15;;;;;;;19.37;2.83;;;;;;;14.70;100.00;100942.19;5016369;28;20530;-90
2022/03/31 07:10:52;;;;;;;11.87;1.77;;;;;;;14.75;100.00;100949.78;5001247;28;20446;-90
2022/03/31 07:13:20;;;;;;;10.40;1.70;;;;;;;14.82;100.00;100939.59;4993786;28;20514;-89
2022/03/31 07:15:47;;;;;;;12.20;1.90;;;;;;;14.94;100.00;100945.28;4997384;28;20494;-90
2022/03/31 07:18:17;;;;;;;18.70;2.20;;;;;;;14.99;100.00;100951.81;4984434;28;20482;-90
2022/03/31 07:21:02;;;;;;;12.97;1.90;;;;;;;15.03;100.00;100953.06;4991999;28;21001;-90
2022/03/31 07:23:31;;;;;;;19.13;2.33;;;;;;;15.07;100.00;100943.31;4982858;28;20443;-90
2022/03/31 07:26:00;;;;;;;10.07;1.63;;;;;;;15.11;100.00;100944.56;4996976;28;20551;-90
2022/03/31 07:28:27;;;;;;;10.10;1.93;;;;;;;15.13;100.00;100942.44;5013686;28;20468;-90
2022/03/31 07:30:55;;;;;;;13.20;2.03;;;;;;;15.18;100.00;100950.91;4981584;28;20464;-91
2022/03/31 07:33:28;;;;;;;7.27;1.30;;;;;;;15.13;100.00;100925.94;4998022;28;20878;-91
2022/03/31 07:35:56;;;;;;;5.20;1.63;;;;;;;15.26;100.00;100944.28;4981312;28;21018;-90
2022/03/31 07:38:33;;;;;;;9.87;1.43;;;;;;;15.21;100.00;100933.91;5038018;28;20495;-90
2022/03/31 07:41:05;;;;;;;7.80;2.47;;;;;;;15.19;100.00;100938.81;5058037;28;20447;-90
2022/03/31 07:43:34;;;;;;;4.83;1.00;;;;;;;15.20;100.00;100957.00;5069093;28;20440;-90
2022/03/31 07:46:02;;;;;;;5.33;1.70;;;;;;;15.31;100.00;100960.16;5053684;28;20499;-91
2022/03/31 07:48:31;;;;;;;6.40;1.60;;;;;;;15.23;100.00;100933.69;5060724;28;20476;-89
2022/03/31 07:50:59;;;;;;;6.53;1.43;;;;;;;15.34;100.00;100948.69;5093814;28;20494;-89
2022/03/31 07:53:27;;;;;;;6.80;1.80;;;;;;;15.35;100.00;100958.66;5086167;28;20503;-90
2022/03/31 07:55:56;;;;;;;8.67;1.20;;;;;;;15.31;100.00;100952.72;5062537;28;20448;-90
2022/03/31 07:58:24;;;;;;;5.90;1.17;;;;;;;15.36;100.00;100954.84;5077853;28;20432;-90
2022/03/31 08:00:52;;;;;;;8.93;1.30;;;;;;;15.41;100.00;100955.00;5060534;28;20815;-89
2022/03/31 08:03:23;;;;;;;12.00;1.50;;;;;;;15.43;100.00;100953.72;5093255;28;20445;-89
2022/03/31 08:05:53;;;;;;;9.63;1.37;;;;;;;15.48;100.00;100961.31;5062341;28;20454;-90
2022/03/31 08:08:21;;;;;;;4.77;1.03;;;;;;;15.55;100.00;100956.63;5060173;28;20852;-91
2022/03/31 08:10:59;;;;;;;11.63;1.70;;;;;;;15.62;100.00;100953.84;5062020;28;20471;-94
2022/03/31 09:42:00;;;;;;;10.40;1.50;;;;;;;16.47;91.18;101099.38;5055513;28;20478;-95
2022/03/31 09:48:23;;;;;;;9.93;2.27;;;;;;;16.69;91.72;101102.63;5053615;28;20468;-93
2022/03/31 09:50:59;;;;;;;13.83;3.13;;;;;;;16.98;92.75;101106.59;5017770;28;21032;-93
2022/03/31 09:53:54;;;;;;;7.50;1.93;;;;;;;17.22;89.40;101122.31;5020311;28;20458;-93
2022/03/31 09:56:28;;;;;;;12.33;1.83;;;;;;;17.31;89.18;101106.28;5037170;28;20442;-92
2022/03/31 09:59:02;;;;;;;12.37;2.80;;;;;;;17.37;88.25;101123.84;5022644;28;20479;-92
2022/03/31 10:01:31;;;;;;;13.63;1.90;;;;;;;17.32;88.27;101107.13;5023629;28;20501;-91
2022/03/31 10:04:02;;;;;;;17.47;2.20;;;;;;;17.05;86.82;101112.94;5029688;28;20450;-92
2022/03/31 10:06:32;;;;;;;8.53;1.73;;;;;;;16.85;87.60;101106.75;5039467;28;20446;-91
2022/03/31 10:09:19;;;;;;;13.97;1.70;;;;;;;16.65;88.18;101108.81;5007899;28;20474;-92
2022/03/31 10:15:31;;;;;;;14.17;2.13;;;;;;;16.94;89.36;101121.94;5057050;28;20465;-93
2022/03/31 10:18:11;;;;;;;13.93;3.53;;;;;;;16.99;87.37;101130.38;5040067;28;20446;-92
2022/03/31 10:20:58;;;;;;;7.23;1.60;;;;;;;17.02;88.66;101120.81;5039588;28;21018;-91
2022/03/31 10:26:28;;;;;;;10.13;1.70;;;;;;;17.09;90.15;101107.78;5022976;28;20432;-91
2022/03/31 10:29:02;;;;;;;13.33;1.67;;;;;;;16.98;90.31;101112.13;5002329;28;20475;-89
2022/03/31 10:31:45;;;;;;;10.27;1.87;;;;;;;17.05;87.44;101115.69;5001891;28;20435;-90
2022/03/31 10:34:35;;;;;;;8.33;1.90;;;;;;;17.11;86.74;101128.59;5018515;28;20517;-91
2022/03/31 10:37:06;;;;;;;8.70;1.73;;;;;;;17.05;87.91;101115.69;5019434;28;20434;-91
2022/03/31 10:40:01;;;;;;;16.50;1.53;;;;;;;17.05;87.62;101123.97;5002888;28;20964;-92
2022/03/31 10:42:32;;;;;;;13.40;2.03;;;;;;;16.95;85.26;101136.59;5018952;28;20432;-90
2022/03/31 10:45:12;;;;;;;18.47;2.67;;;;;;;16.79;86.35;101129.72;5018613;28;20446;-90
2022/03/31 10:47:43;;;;;;;7.57;1.33;;;;;;;16.91;86.22;101139.81;5003156;28;20447;-89
2022/03/31 10:50:33;;;;;;;11.87;1.10;;;;;;;17.18;86.35;101139.56;5019172;28;20427;-90
2022/03/31 10:53:27;;;;;;;5.13;1.13;;;;;;;17.47;84.15;101138.00;5011187;28;20502;-89
2022/03/31 10:55:57;;;;;;;3.83;1.10;;;;;;;17.73;83.26;101134.94;5006122;28;20444;-89
2022/03/31 10:58:41;;;;;;;17.33;1.57;;;;;;;17.90;81.86;101138.75;5034423;28;20462;-90
2022/03/31 11:01:30;;;;;;;6.50;1.27;;;;;;;17.88;82.05;101140.94;5017193;28;20493;-94
2022/03/31 11:04:15;;;;;;;6.33;1.40;;;;;;;17.77;82.82;101127.88;5018965;28;20451;-90
2022/03/31 11:06:47;;;;;;;11.37;2.00;;;;;;;17.75;83.41;101134.69;5002827;28;20447;-91
2022/03/31 11:09:33;;;;;;;6.23;1.20;;;;;;;17.65;82.87;101146.31;4983389;28;20534;-92
2022/03/31 11:12:05;;;;;;;9.73;1.73;;;;;;;17.53;82.74;101126.00;4989198;28;20459;-92
2022/03/31 11:14:38;;;;;;;10.80;1.47;;;;;;;17.64;84.02;101150.16;5004140;28;20467;-92
2022/03/31 11:17:22;;;;;;;9.80;1.17;;;;;;;17.67;83.72;101144.16;5039203;28;20451;-91
2022/03/31 11:19:53;;;;;;;12.33;1.97;;;;;;;17.70;83.70;101127.13;5021940;28;20460;-93
2022/03/31 11:22:27;;;;;;;12.40;2.10;;;;;;;17.68;82.72;101148.63;5016087;28;20500;-92
2022/03/31 11:25:25;;;;;;;6.00;1.30;;;;;;;17.65;80.90;101138.03;5037395;28;20466;-92
2022/03/31 11:28:23;;;;;;;8.23;0.93;;;;;;;17.61;82.05;101114.63;5018773;28;20479;-92
2022/03/31 11:30:55;;;;;;;8.50;1.43;;;;;;;17.84;82.47;101149.91;5048422;28;20449;-92
2022/03/31 11:33:33;;;;;;;15.13;2.20;;;;;;;17.84;81.88;101127.78;5048078;28;20482;-92
2022/03/31 11:36:05;;;;;;;7.73;1.57;;;;;;;17.77;80.64;101136.16;5003124;28;20447;-93
2022/03/31 11:38:59;;;;;;;8.43;2.20;;;;;;;17.81;79.85;101153.97;5002656;28;20458;-92
2022/03/31 11:41:36;;;;;;;9.00;1.80;;;;;;;17.74;80.50;101152.38;5018948;28;20439;-93
2022/03/31 11:44:45;;;;;;;5.97;1.10;;;;;;;17.76;79.74;101141.91;5020197;28;20450;-93
2022/03/31 11:47:22;;;;;;;5.37;1.43;;;;;;;17.83;80.87;101143.53;5016577;28;20447;-92
2022/03/31 11:50:03;;;;;;;16.73;1.80;;;;;;;17.86;80.19;101159.69;5019114;28;20479;-93
2022/03/31 11:52:40;;;;;;;8.63;2.03;;;;;;;17.82;80.53;101161.22;5017517;28;20797;-93
2022/03/31 11:55:16;;;;;;;4.10;1.27;;;;;;;17.72;79.33;101140.69;5002741;28;20801;-93
2022/03/31 12:01:48;;;;;;;9.90;1.50;;;;;;;18.52;78.41;101155.13;5016106;28;20411;-92
2022/03/31 12:04:46;;;;;;;6.40;1.20;;;;;;;18.87;75.44;101164.38;5014966;28;20490;-93
2022/03/31 12:07:42;;;;;;;8.90;1.17;;;;;;;18.81;73.70;101167.28;5014869;28;20455;-93
2022/03/31 12:10:19;;;;;;;8.00;0.90;;;;;;;18.61;74.03;101129.69;4998773;28;20440;-94
2022/03/31 12:12:54;;;;;;;2.37;0.70;;;;;;;18.92;73.93;101152.59;4997532;28;20448;-93
2022/03/31 12:15:33;;;;;;;17.33;2.47;;;;;;;19.12;74.33;101157.81;4999127;28;20454;-93
2022/03/31 12:18:23;;;;;;;8.10;0.97;;;;;;;19.30;72.57;101154.91;5004287;28;20465;-93
2022/03/31 12:20:58;;;;;;;5.00;1.20;;;;;;;19.24;70.59;101167.78;5006819;28;20949;-93
2022/03/31 12:23:29;;;;;;;2.20;1.10;;;;;;;19.20;71.00;101132.50;5017936;28;20451;-93
2022/03/31 12:30:01;;;;;;;22.87;2.07;;;;;;;18.57;73.28;101145.03;5029555;28;20449;-93
2022/03/31 12:32:49;;;;;;;11.00;1.90;;;;;;;18.57;74.46;101127.59;4985394;28;20455;-91
2022/03/31 12:35:18;;;;;;;5.90;0.90;;;;;;;18.82;73.72;101130.19;4983455;28;20448;-92
2022/03/31 12:38:00;;;;;;;6.07;1.03;;;;;;;19.22;73.01;101120.09;4985838;28;20454;-93
2022/03/31 12:44:21;;;;;;;2.40;0.80;;;;;;;19.42;68.57;101141.06;5034832;28;20478;-92
2022/03/31 12:47:01;;;;;;;4.20;0.93;;;;;;;19.20;69.80;101140.81;4986239;28;20448;-91
2022/03/31 12:53:11;;;;;;;5.90;1.10;;;;;;;18.68;70.83;101134.25;5033026;28;20434;-92
2022/03/31 12:55:41;;;;;;;7.57;1.20;;;;;;;18.42;71.01;101136.34;4990945;28;20546;-94
2022/03/31 12:58:12;;;;;;;7.10;1.50;;;;;;;18.57;72.70;101128.44;4984546;28;20527;-94
2022/03/31 13:00:43;;;;;;;7.53;1.20;;;;;;;18.68;71.92;101112.09;5016882;28;20487;-91
2022/03/31 13:03:20;;;;;;;7.83;1.50;;;;;;;18.84;71.86;101125.28;5004859;28;20482;-93
2022/03/31 13:09:29;;;;;;;10.20;1.33;;;;;;;18.97;69.16;101131.41;5033339;28;20550;-92
2022/03/31 13:12:12;;;;;;;7.83;1.13;;;;;;;18.67;69.94;101110.41;4982189;28;20483;-92
2022/03/31 13:14:43;;;;;;;8.03;1.20;;;;;;;18.50;69.17;101111.06;4981960;28;20479;-92
2022/03/31 13:17:18;;;;;;;4.43;1.37;;;;;;;18.58;71.40;101116.28;4981906;28;20511;-93
2022/03/31 13:22:59;;;;;;;9.30;1.43;;;;;;;19.26;69.36;101104.66;5034560;28;20444;-92
2022/03/31 13:25:27;;;;;;;9.07;1.47;;;;;;;19.67;68.50;101105.59;5008408;28;20474;-94
2022/03/31 13:28:12;;;;;;;6.87;1.30;;;;;;;19.86;66.25;101093.22;5012414;28;20444;-91
2022/03/31 13:30:41;;;;;;;9.20;1.30;;;;;;;19.95;65.75;101094.53;5009894;28;20444;-93
2022/03/31 13:33:20;;;;;;;8.27;1.07;;;;;;;20.14;64.03;101110.97;4991241;28;20444;-91
2022/03/31 13:35:54;;;;;;;11.67;2.00;;;;;;;19.80;63.40;101107.25;5013978;28;20495;-91
2022/03/31 13:42:01;;;;;;;7.03;1.70;;;;;;;20.54;64.67;101097.88;5030610;28;20443;-91
2022/03/31 13:44:42;;;;;;;11.83;1.60;;;;;;;20.52;63.86;101102.00;5016052;28;20917;-91
2022/03/31 13:50:50;;;;;;;6.63;1.00;;;;;;;20.48;62.11;101092.47;5036034;28;20522;-91
2022/03/31 13:53:45;;;;;;;8.00;1.27;;;;;;;20.30;62.70;101099.06;5000767;28;20502;-91
2022/03/31 13:56:20;;;;;;;3.80;1.30;;;;;;;20.44;61.86;101092.13;4999012;28;20445;-91
2022/03/31 14:02:08;;;;;;;7.07;1.73;;;;;;;20.34;59.49;101101.09;5002030;28;20452;-91
2022/03/31 14:04:38;;;;;;;12.93;0.87;;;;;;;20.34;58.73;101105.81;5000349;28;20466;-91
2022/03/31 14:07:16;;;;;;;2.37;1.00;;;;;;;20.43;59.18;101103.50;5016896;28;20466;-92
2022/03/31 14:09:45;;;;;;;3.90;0.80;;;;;;;20.23;59.60;101109.47;5001269;28;21026;-91
2022/03/31 14:12:13;;;;;;;2.90;0.80;;;;;;;20.17;60.32;101111.34;5018398;28;20451;-90
2022/03/31 14:14:42;;;;;;;8.07;1.03;;;;;;;19.96;61.16;101114.78;5018000;28;20467;-91
2022/03/31 14:17:38;;;;;;;2.33;0.67;;;;;;;19.76;60.89;101101.34;5013791;28;20445;-93
2022/03/31 14:20:08;;;;;;;4.87;0.83;;;;;;;19.70;62.03;101116.19;5018463;28;20451;-90
2022/03/31 14:22:36;;;;;;;7.53;0.87;;;;;;;19.79;61.74;101114.72;4998527;28;20440;-91
2022/03/31 14:25:05;;;;;;;6.60;1.43;;;;;;;19.86;60.41;101118.19;4998115;28;20471;-90
2022/03/31 14:27:35;;;;;;;3.83;0.90;;;;;;;19.98;61.39;101119.00;4996548;28;20470;-91
2022/03/31 14:30:07;;;;;;;3.47;0.87;;;;;;;19.96;61.24;101110.09;5015673;28;20830;-91
2022/03/31 14:32:40;;;;;;;6.17;1.73;;;;;;;19.63;61.04;101110.78;5009566;28;20518;-91
2022/03/31 14:35:23;;;;;;;8.10;1.37;;;;;;;19.67;61.98;101100.03;5024092;28;20451;-90
2022/03/31 14:37:52;;;;;;;3.80;1.10;;;;;;;19.67;62.09;101113.91;5014789;28;20963;-87
2022/03/31 14:40:25;;;;;;;5.40;1.20;;;;;;;19.78;60.77;101115.81;5001398;28;20471;-90
2022/03/31 14:42:54;;;;;;;5.27;1.00;;;;;;;19.59;60.46;101108.75;5018449;28;20439;-91